AirNav   Everest Fuels
 
 839 users online  

0KY4 Russell County Ambulance Service Heliport
Jamestown, Kentucky, USA

GOING TO JAMESTOWN?


FAA INFORMATION EFFECTIVE 09 SEPTEMBER 2021

Location

FAA Identifier: 0KY4
Lat/Long: 37-00-15.8400N 085-04-34.6800W
37-00.264000N 085-04.578000W
37.0044000,-85.0763000
(estimated)
Elevation: 693 ft. / 211 m (estimated)
From city: 1 mile N of JAMESTOWN, KY
Time zone: UTC -5 (UTC -6 during Standard Time)
Zip code: 42629

Heliport Operations

Heliport use: Private use. Permission required prior to landing
Activation date: 05/2011
Control tower: no
ARTCC: INDIANAPOLIS CENTER
FSS: LOUISVILLE FLIGHT SERVICE STATION
Attendance: CONTINUOUS
Wind indicator: yes
Segmented circle: no

Heliport Communications

WX AWOS-3 at K24 (1.3 nm W): 119.6 (270-343-5556)
WX AWOS-3PT at EKQ (14 nm SE): 118.825 (606-348-0862)

Nearby radio navigation aids

VOR radial/distance  VOR name  Freq  Var
LVTr012/25.6LIVINGSTON VOR/DME108.4002W

 
NDB name  Hdg/Dist  Freq  Var  ID
CUMBERLAND RIVER276/18.938805WCDX -.-. -.. -..-
GOODALL206/37.431103WDVK -.. ...- -.-

Heliport Services

Runway Information

Helipad H1

Dimensions: 40 x 40 ft. / 12 x 12 m
Surface: concrete
Latitude: 37-00.264000N
Longitude: 085-04.578000W
Elevation: 693.0 ft.
Traffic pattern: leftleft

Heliport Ownership and Management from official FAA records

Ownership: Privately-owned
Owner: RUSSELL CO. AMBULANCE TAXING DIST.
108 FERCO WAY
JAMESTOWN, KY 42629
Phone 270-343-6464
Manager: TERRY HANCOCK
108 FERCO WAY
JAMESTOWN, KY 42629
Phone 270-343-6464

Additional Remarks

FOR CD CTC INDIANAPOLIS ARTCC AT 317-247-2411.

Instrument Procedures

There are no published instrument procedures at 0KY4.

Some nearby airports with instrument procedures:

K24 - Russell County Airport (1 nm W)
KEKQ - Wayne County Airport (14 nm SE)
KSME - Lake Cumberland Regional Airport (22 nm E)
KAAS - Taylor County Airport (24 nm NW)
KTZV - Tompkinsville-Monroe County Airport (32 nm SW)
 
Loc | Ops | Rwys | IFR | FBO | Links
Com | Nav | Svcs | Stats | Notes
Aerial photo
No photo
 
Sectional chart

 
Airport distance calculator
Flying to Russell County Ambulance Service Heliport? Find the distance to fly.

From to 0KY4

Sunrise and sunset
Times for 23-Sep-2021
 Local
(UTC-5)
 Zulu
(UTC)
Morning civil twilight06:0411:04
Sunrise06:3011:30
Sunset18:3523:35
Evening civil twilight19:0100:01

Current date and time
Zulu (UTC)  24-Sep-2021 04:08:25
Local (UTC-5)  23-Sep-2021 23:08:25
 
METAR
KEKQ 
14nm SE 
240356Z AUTO 00000KT 9SM CLR 07/07 A3013 RMK AO2 SLP201 T00720072 402000072
KSME 
22nm E 
240353Z AUTO 00000KT 10SM CLR 08/04 A3013 RMK AO2 TSNO
KAAS 
24nm NW 
240355Z AUTO 00000KT 10SM CLR 10/10 A3014 RMK AO1
TAF
KSME 
22nm E 
231738Z 2318/2418 27011KT P6SM FEW050 FEW150 FM232300 VRB05KT P6SM SKC FM241100 VRB03KT 5SM BR FEW250 FM241300 VRB03KT P6SM FEW250
NOTAMs
Click for the latest NOTAMs
NOTAMs are issued by the DoD/FAA and will open in a separate window not controlled by AirNav.

 

 
 

Would you like to see your business listed on this page?

 If your business provides an interesting product or service to pilots, flight crews, aircraft, or users of the Russell County Ambulance Service Heliport, you should consider listing it here.  To start the listing process, click on the button below
 
Add a business
 

Other Pages about Russell County Ambulance Service Heliport

Update a link
 
Copyright © AirNav, LLC. All rights reserved. Privacy Policy  Contact